sensor_id;sensor_type;location;lat;lon;timestamp;P1;durP1;ratioP1;P2;durP2;ratioP2
68484;SDS011;55472;50.060;21.960;2023-04-01T00:01:07;15.45;;;6.53;;
68484;SDS011;55472;50.060;21.960;2023-04-01T00:03:35;14.73;;;6.50;;
68484;SDS011;55472;50.060;21.960;2023-04-01T00:06:01;12.68;;;6.50;;
68484;SDS011;55472;50.060;21.960;2023-04-01T00:08:28;12.05;;;5.90;;
68484;SDS011;55472;50.060;21.960;2023-04-01T00:10:55;13.43;;;5.27;;
68484;SDS011;55472;50.060;21.960;2023-04-01T00:13:22;14.98;;;6.00;;
68484;SDS011;55472;50.060;21.960;2023-04-01T00:15:51;15.48;;;6.63;;
68484;SDS011;55472;50.060;21.960;2023-04-01T00:18:18;12.80;;;5.72;;
68484;SDS011;55472;50.060;21.960;2023-04-01T00:20:45;14.90;;;5.95;;
68484;SDS011;55472;50.060;21.960;2023-04-01T00:23:14;15.27;;;5.83;;
68484;SDS011;55472;50.060;21.960;2023-04-01T00:25:41;15.73;;;6.47;;
68484;SDS011;55472;50.060;21.960;2023-04-01T00:28:07;14.05;;;5.90;;
68484;SDS011;55472;50.060;21.960;2023-04-01T00:30:35;13.57;;;5.80;;
68484;SDS011;55472;50.060;21.960;2023-04-01T00:33:02;12.65;;;6.10;;
68484;SDS011;55472;50.060;21.960;2023-04-01T00:35:29;12.10;;;5.97;;
68484;SDS011;55472;50.060;21.960;2023-04-01T00:37:55;12.70;;;5.70;;
68484;SDS011;55472;50.060;21.960;2023-04-01T00:40:24;12.98;;;5.93;;
68484;SDS011;55472;50.060;21.960;2023-04-01T00:42:56;15.95;;;6.20;;
68484;SDS011;55472;50.060;21.960;2023-04-01T00:48:08;11.43;;;5.73;;
68484;SDS011;55472;50.060;21.960;2023-04-01T00:50:37;12.48;;;5.93;;
68484;SDS011;55472;50.060;21.960;2023-04-01T00:53:06;13.68;;;6.05;;
68484;SDS011;55472;50.060;21.960;2023-04-01T00:55:34;12.55;;;5.95;;
68484;SDS011;55472;50.060;21.960;2023-04-01T00:58:05;13.75;;;6.43;;
68484;SDS011;55472;50.060;21.960;2023-04-01T01:00:39;13.20;;;5.80;;
68484;SDS011;55472;50.060;21.960;2023-04-01T01:03:05;13.82;;;6.78;;
68484;SDS011;55472;50.060;21.960;2023-04-01T01:11:15;12.20;;;5.82;;
68484;SDS011;55472;50.060;21.960;2023-04-01T01:14:04;15.13;;;5.93;;
68484;SDS011;55472;50.060;21.960;2023-04-01T01:35:33;12.77;;;5.85;;
68484;SDS011;55472;50.060;21.960;2023-04-01T01:38:10;13.57;;;6.38;;
68484;SDS011;55472;50.060;21.960;2023-04-01T01:40:42;15.15;;;5.95;;
68484;SDS011;55472;50.060;21.960;2023-04-01T01:43:16;13.90;;;5.97;;
68484;SDS011;55472;50.060;21.960;2023-04-01T01:45:57;14.10;;;6.10;;
68484;SDS011;55472;50.060;21.960;2023-04-01T01:48:31;12.10;;;6.35;;
68484;SDS011;55472;50.060;21.960;2023-04-01T01:50:59;14.48;;;6.43;;
68484;SDS011;55472;50.060;21.960;2023-04-01T01:53:27;13.27;;;6.45;;
68484;SDS011;55472;50.060;21.960;2023-04-01T01:55:53;13.13;;;6.13;;
68484;SDS011;55472;50.060;21.960;2023-04-01T01:58:22;13.50;;;6.20;;
68484;SDS011;55472;50.060;21.960;2023-04-01T02:01:06;14.73;;;6.57;;
68484;SDS011;55472;50.060;21.960;2023-04-01T02:03:37;16.20;;;6.60;;
68484;SDS011;55472;50.060;21.960;2023-04-01T02:06:07;13.75;;;6.85;;
68484;SDS011;55472;50.060;21.960;2023-04-01T02:11:17;14.88;;;6.80;;
68484;SDS011;55472;50.060;21.960;2023-04-01T02:14:06;11.98;;;6.28;;
68484;SDS011;55472;50.060;21.960;2023-04-01T02:16:49;13.25;;;6.05;;
68484;SDS011;55472;50.060;21.960;2023-04-01T02:19:37;14.00;;;5.90;;
68484;SDS011;55472;50.060;21.960;2023-04-01T02:22:29;12.13;;;5.50;;
68484;SDS011;55472;50.060;21.960;2023-04-01T02:25:05;13.93;;;5.85;;
68484;SDS011;55472;50.060;21.960;2023-04-01T02:27:42;12.13;;;5.43;;
68484;SDS011;55472;50.060;21.960;2023-04-01T02:30:11;11.57;;;5.63;;
68484;SDS011;55472;50.060;21.960;2023-04-01T02:32:40;14.15;;;5.75;;
68484;SDS011;55472;50.060;21.960;2023-04-01T02:35:08;10.77;;;5.20;;
68484;SDS011;55472;50.060;21.960;2023-04-01T02:37:40;11.85;;;5.53;;
68484;SDS011;55472;50.060;21.960;2023-04-01T02:40:09;11.80;;;5.60;;
68484;SDS011;55472;50.060;21.960;2023-04-01T02:42:38;11.13;;;4.93;;
68484;SDS011;55472;50.060;21.960;2023-04-01T02:45:05;11.57;;;5.43;;
68484;SDS011;55472;50.060;21.960;2023-04-01T02:47:32;13.47;;;5.97;;
68484;SDS011;55472;50.060;21.960;2023-04-01T02:49:59;12.02;;;5.38;;
68484;SDS011;55472;50.060;21.960;2023-04-01T02:52:25;11.38;;;5.20;;
68484;SDS011;55472;50.060;21.960;2023-04-01T02:54:54;11.88;;;5.18;;
68484;SDS011;55472;50.060;21.960;2023-04-01T02:57:21;11.98;;;5.80;;
68484;SDS011;55472;50.060;21.960;2023-04-01T02:59:49;11.30;;;5.37;;
68484;SDS011;55472;50.060;21.960;2023-04-01T03:02:15;12.27;;;5.65;;
68484;SDS011;55472;50.060;21.960;2023-04-01T03:04:43;10.93;;;5.18;;
68484;SDS011;55472;50.060;21.960;2023-04-01T03:07:09;12.35;;;5.03;;
68484;SDS011;55472;50.060;21.960;2023-04-01T03:09:36;12.20;;;5.35;;
68484;SDS011;55472;50.060;21.960;2023-04-01T03:12:03;11.90;;;5.63;;
68484;SDS011;55472;50.060;21.960;2023-04-01T03:14:30;10.27;;;5.05;;
68484;SDS011;55472;50.060;21.960;2023-04-01T03:16:56;11.93;;;5.70;;
68484;SDS011;55472;50.060;21.960;2023-04-01T03:19:23;10.15;;;4.93;;
68484;SDS011;55472;50.060;21.960;2023-04-01T03:21:49;9.27;;;4.90;;
68484;SDS011;55472;50.060;21.960;2023-04-01T03:24:15;10.63;;;5.30;;
68484;SDS011;55472;50.060;21.960;2023-04-01T03:26:41;10.55;;;4.70;;
68484;SDS011;55472;50.060;21.960;2023-04-01T03:29:08;11.98;;;5.18;;
68484;SDS011;55472;50.060;21.960;2023-04-01T03:31:34;10.85;;;5.30;;
68484;SDS011;55472;50.060;21.960;2023-04-01T03:34:00;12.77;;;5.18;;
68484;SDS011;55472;50.060;21.960;2023-04-01T03:36:26;11.97;;;5.50;;
68484;SDS011;55472;50.060;21.960;2023-04-01T03:38:54;12.35;;;5.53;;
68484;SDS011;55472;50.060;21.960;2023-04-01T03:41:20;12.15;;;5.75;;
68484;SDS011;55472;50.060;21.960;2023-04-01T03:43:46;11.82;;;6.22;;
68484;SDS011;55472;50.060;21.960;2023-04-01T03:46:16;11.80;;;6.20;;
68484;SDS011;55472;50.060;21.960;2023-04-01T03:48:44;10.00;;;5.47;;
68484;SDS011;55472;50.060;21.960;2023-04-01T03:51:11;10.35;;;4.80;;
68484;SDS011;55472;50.060;21.960;2023-04-01T03:53:37;10.70;;;5.22;;
68484;SDS011;55472;50.060;21.960;2023-04-01T03:56:04;10.35;;;5.00;;
68484;SDS011;55472;50.060;21.960;2023-04-01T03:58:32;10.65;;;4.22;;
68484;SDS011;55472;50.060;21.960;2023-04-01T04:00:58;8.47;;;4.37;;
68484;SDS011;55472;50.060;21.960;2023-04-01T04:03:24;10.45;;;4.65;;
68484;SDS011;55472;50.060;21.960;2023-04-01T04:05:51;10.13;;;4.43;;
68484;SDS011;55472;50.060;21.960;2023-04-01T04:08:17;10.02;;;4.47;;
68484;SDS011;55472;50.060;21.960;2023-04-01T04:10:44;9.38;;;4.65;;
68484;SDS011;55472;50.060;21.960;2023-04-01T04:13:13;11.93;;;5.30;;
68484;SDS011;55472;50.060;21.960;2023-04-01T04:15:39;11.40;;;5.30;;
68484;SDS011;55472;50.060;21.960;2023-04-01T04:18:05;11.35;;;5.13;;
68484;SDS011;55472;50.060;21.960;2023-04-01T04:20:31;11.63;;;5.65;;
68484;SDS011;55472;50.060;21.960;2023-04-01T04:22:57;9.82;;;5.97;;
68484;SDS011;55472;50.060;21.960;2023-04-01T04:25:25;11.17;;;5.57;;
68484;SDS011;55472;50.060;21.960;2023-04-01T04:27:51;11.00;;;5.80;;
68484;SDS011;55472;50.060;21.960;2023-04-01T04:30:17;11.02;;;5.70;;
68484;SDS011;55472;50.060;21.960;2023-04-01T04:32:44;10.65;;;5.68;;
68484;SDS011;55472;50.060;21.960;2023-04-01T04:35:10;11.07;;;5.75;;
68484;SDS011;55472;50.060;21.960;2023-04-01T04:37:36;10.70;;;4.90;;
68484;SDS011;55472;50.060;21.960;2023-04-01T04:40:02;9.55;;;4.78;;
68484;SDS011;55472;50.060;21.960;2023-04-01T04:42:29;9.05;;;4.30;;
68484;SDS011;55472;50.060;21.960;2023-04-01T04:44:55;8.95;;;3.08;;
68484;SDS011;55472;50.060;21.960;2023-04-01T04:47:21;5.72;;;2.25;;
68484;SDS011;55472;50.060;21.960;2023-04-01T04:49:47;5.53;;;1.83;;
68484;SDS011;55472;50.060;21.960;2023-04-01T04:52:14;4.72;;;1.90;;
68484;SDS011;55472;50.060;21.960;2023-04-01T04:54:40;6.93;;;1.95;;
68484;SDS011;55472;50.060;21.960;2023-04-01T04:57:06;8.52;;;2.40;;
68484;SDS011;55472;50.060;21.960;2023-04-01T04:59:32;9.27;;;3.25;;
68484;SDS011;55472;50.060;21.960;2023-04-01T05:01:59;10.47;;;2.70;;
68484;SDS011;55472;50.060;21.960;2023-04-01T05:04:25;7.10;;;1.80;;
68484;SDS011;55472;50.060;21.960;2023-04-01T05:06:51;5.15;;;1.48;;
68484;SDS011;55472;50.060;21.960;2023-04-01T05:09:17;6.38;;;1.80;;
68484;SDS011;55472;50.060;21.960;2023-04-01T05:11:44;7.45;;;1.90;;
68484;SDS011;55472;50.060;21.960;2023-04-01T05:14:14;7.47;;;2.30;;
68484;SDS011;55472;50.060;21.960;2023-04-01T05:16:41;9.10;;;2.38;;
68484;SDS011;55472;50.060;21.960;2023-04-01T05:19:08;9.52;;;1.88;;
68484;SDS011;55472;50.060;21.960;2023-04-01T05:21:34;6.07;;;1.73;;
68484;SDS011;55472;50.060;21.960;2023-04-01T05:24:00;6.68;;;1.95;;
68484;SDS011;55472;50.060;21.960;2023-04-01T05:26:27;6.47;;;1.97;;
68484;SDS011;55472;50.060;21.960;2023-04-01T05:28:53;5.53;;;1.55;;
68484;SDS011;55472;50.060;21.960;2023-04-01T05:31:19;6.20;;;1.45;;
68484;SDS011;55472;50.060;21.960;2023-04-01T05:33:45;6.05;;;1.45;;
68484;SDS011;55472;50.060;21.960;2023-04-01T05:36:14;6.28;;;1.52;;
68484;SDS011;55472;50.060;21.960;2023-04-01T05:38:41;5.70;;;1.60;;
68484;SDS011;55472;50.060;21.960;2023-04-01T05:41:09;5.28;;;1.40;;
68484;SDS011;55472;50.060;21.960;2023-04-01T05:43:35;4.78;;;1.50;;
68484;SDS011;55472;50.060;21.960;2023-04-01T05:46:02;5.20;;;1.63;;
68484;SDS011;55472;50.060;21.960;2023-04-01T05:48:28;6.63;;;2.30;;
68484;SDS011;55472;50.060;21.960;2023-04-01T05:50:55;8.03;;;2.50;;
68484;SDS011;55472;50.060;21.960;2023-04-01T05:53:21;5.93;;;2.53;;
68484;SDS011;55472;50.060;21.960;2023-04-01T05:55:47;5.97;;;2.10;;
68484;SDS011;55472;50.060;21.960;2023-04-01T05:58:14;5.63;;;1.80;;
68484;SDS011;55472;50.060;21.960;2023-04-01T06:00:40;6.15;;;2.10;;
68484;SDS011;55472;50.060;21.960;2023-04-01T06:03:06;4.53;;;1.53;;
68484;SDS011;55472;50.060;21.960;2023-04-01T06:05:40;3.92;;;1.52;;
68484;SDS011;55472;50.060;21.960;2023-04-01T06:08:15;7.38;;;2.30;;
68484;SDS011;55472;50.060;21.960;2023-04-01T06:37:23;5.00;;;1.55;;
68484;SDS011;55472;50.060;21.960;2023-04-01T06:45:24;5.60;;;1.80;;
68484;SDS011;55472;50.060;21.960;2023-04-01T06:56:46;5.47;;;1.40;;
68484;SDS011;55472;50.060;21.960;2023-04-01T06:59:21;4.15;;;1.33;;
68484;SDS011;55472;50.060;21.960;2023-04-01T07:02:06;5.03;;;1.60;;
68484;SDS011;55472;50.060;21.960;2023-04-01T07:04:50;4.75;;;1.45;;
68484;SDS011;55472;50.060;21.960;2023-04-01T07:07:43;4.85;;;1.73;;
68484;SDS011;55472;50.060;21.960;2023-04-01T07:10:19;6.00;;;1.90;;
68484;SDS011;55472;50.060;21.960;2023-04-01T07:13:04;5.00;;;1.80;;
68484;SDS011;55472;50.060;21.960;2023-04-01T07:15:42;4.85;;;1.80;;
68484;SDS011;55472;50.060;21.960;2023-04-01T07:18:22;5.93;;;2.00;;
68484;SDS011;55472;50.060;21.960;2023-04-01T07:21:17;4.55;;;1.50;;
68484;SDS011;55472;50.060;21.960;2023-04-01T07:24:03;5.25;;;1.70;;
68484;SDS011;55472;50.060;21.960;2023-04-01T07:26:36;5.28;;;1.58;;
68484;SDS011;55472;50.060;21.960;2023-04-01T07:29:05;6.68;;;2.75;;
68484;SDS011;55472;50.060;21.960;2023-04-01T07:39:47;7.20;;;2.13;;
68484;SDS011;55472;50.060;21.960;2023-04-01T07:48:13;7.68;;;2.03;;
68484;SDS011;55472;50.060;21.960;2023-04-01T07:56:42;5.07;;;1.60;;
68484;SDS011;55472;50.060;21.960;2023-04-01T08:02:40;5.88;;;1.70;;
68484;SDS011;55472;50.060;21.960;2023-04-01T08:05:22;6.00;;;1.60;;
68484;SDS011;55472;50.060;21.960;2023-04-01T08:21:21;3.80;;;1.15;;
68484;SDS011;55472;50.060;21.960;2023-04-01T08:23:57;6.07;;;1.60;;
68484;SDS011;55472;50.060;21.960;2023-04-01T08:31:55;5.05;;;1.35;;
68484;SDS011;55472;50.060;21.960;2023-04-01T08:34:37;4.82;;;1.20;;
68484;SDS011;55472;50.060;21.960;2023-04-01T08:39:37;5.13;;;1.50;;
68484;SDS011;55472;50.060;21.960;2023-04-01T08:51:01;5.20;;;1.50;;
68484;SDS011;55472;50.060;21.960;2023-04-01T08:57:05;6.83;;;1.90;;
68484;SDS011;55472;50.060;21.960;2023-04-01T09:11:11;5.77;;;2.00;;
68484;SDS011;55472;50.060;21.960;2023-04-01T09:49:41;4.80;;;1.50;;
68484;SDS011;55472;50.060;21.960;2023-04-01T09:52:28;5.55;;;1.63;;
68484;SDS011;55472;50.060;21.960;2023-04-01T10:22:56;4.20;;;1.02;;
68484;SDS011;55472;50.060;21.960;2023-04-01T10:37:11;3.90;;;1.33;;
68484;SDS011;55472;50.060;21.960;2023-04-01T10:55:45;6.00;;;1.80;;
68484;SDS011;55472;50.060;21.960;2023-04-01T11:36:06;5.55;;;1.70;;
68484;SDS011;55472;50.060;21.960;2023-04-01T11:44:24;5.10;;;1.47;;
68484;SDS011;55472;50.060;21.960;2023-04-01T11:47:15;3.40;;;1.00;;
68484;SDS011;55472;50.060;21.960;2023-04-01T12:03:44;5.88;;;1.75;;
68484;SDS011;55472;50.060;21.960;2023-04-01T12:07:06;5.43;;;1.50;;
68484;SDS011;55472;50.060;21.960;2023-04-01T12:21:35;6.75;;;1.58;;
68484;SDS011;55472;50.060;21.960;2023-04-01T12:27:43;6.17;;;1.70;;
68484;SDS011;55472;50.060;21.960;2023-04-01T12:30:14;5.43;;;1.52;;
68484;SDS011;55472;50.060;21.960;2023-04-01T12:45:35;4.50;;;1.23;;
68484;SDS011;55472;50.060;21.960;2023-04-01T13:06:37;5.00;;;2.50;;
68484;SDS011;55472;50.060;21.960;2023-04-01T13:17:57;6.10;;;2.20;;
68484;SDS011;55472;50.060;21.960;2023-04-01T13:20:57;6.32;;;1.75;;
68484;SDS011;55472;50.060;21.960;2023-04-01T13:32:34;7.68;;;2.42;;
68484;SDS011;55472;50.060;21.960;2023-04-01T13:37:58;6.60;;;2.78;;
68484;SDS011;55472;50.060;21.960;2023-04-01T13:41:19;5.30;;;1.90;;
68484;SDS011;55472;50.060;21.960;2023-04-01T13:44:17;3.97;;;1.60;;
68484;SDS011;55472;50.060;21.960;2023-04-01T13:47:08;3.95;;;1.63;;
68484;SDS011;55472;50.060;21.960;2023-04-01T13:58:53;36.10;;;12.93;;
68484;SDS011;55472;50.060;21.960;2023-04-01T14:07:12;16.85;;;6.47;;
68484;SDS011;55472;50.060;21.960;2023-04-01T14:12:59;24.58;;;9.63;;
68484;SDS011;55472;50.060;21.960;2023-04-01T14:29:37;6.57;;;2.38;;
68484;SDS011;55472;50.060;21.960;2023-04-01T14:35:25;6.63;;;2.67;;
68484;SDS011;55472;50.060;21.960;2023-04-01T14:41:16;7.30;;;2.40;;
68484;SDS011;55472;50.060;21.960;2023-04-01T14:49:37;5.53;;;2.13;;
68484;SDS011;55472;50.060;21.960;2023-04-01T14:52:13;7.00;;;2.53;;
68484;SDS011;55472;50.060;21.960;2023-04-01T14:54:46;6.03;;;2.53;;
68484;SDS011;55472;50.060;21.960;2023-04-01T14:57:16;6.32;;;2.42;;
68484;SDS011;55472;50.060;21.960;2023-04-01T14:59:51;7.45;;;2.38;;
68484;SDS011;55472;50.060;21.960;2023-04-01T15:08:43;8.23;;;3.30;;
68484;SDS011;55472;50.060;21.960;2023-04-01T15:14:26;8.88;;;2.88;;
68484;SDS011;55472;50.060;21.960;2023-04-01T15:17:23;6.60;;;3.10;;
68484;SDS011;55472;50.060;21.960;2023-04-01T15:43:56;10.80;;;4.88;;
68484;SDS011;55472;50.060;21.960;2023-04-01T15:49:22;10.87;;;4.30;;
68484;SDS011;55472;50.060;21.960;2023-04-01T15:52:21;11.88;;;5.03;;
68484;SDS011;55472;50.060;21.960;2023-04-01T16:15:47;4.95;;;1.70;;
68484;SDS011;55472;50.060;21.960;2023-04-01T16:27:02;8.02;;;2.92;;
68484;SDS011;55472;50.060;21.960;2023-04-01T16:29:40;6.32;;;2.78;;
68484;SDS011;55472;50.060;21.960;2023-04-01T16:32:54;8.17;;;3.40;;
68484;SDS011;55472;50.060;21.960;2023-04-01T16:35:52;6.97;;;2.60;;
68484;SDS011;55472;50.060;21.960;2023-04-01T16:41:49;9.23;;;4.10;;
68484;SDS011;55472;50.060;21.960;2023-04-01T16:47:36;19.03;;;7.33;;
68484;SDS011;55472;50.060;21.960;2023-04-01T16:55:48;23.08;;;9.38;;
68484;SDS011;55472;50.060;21.960;2023-04-01T16:58:26;20.27;;;9.85;;
68484;SDS011;55472;50.060;21.960;2023-04-01T17:01:05;16.33;;;7.53;;
68484;SDS011;55472;50.060;21.960;2023-04-01T17:03:57;23.08;;;11.02;;
68484;SDS011;55472;50.060;21.960;2023-04-01T17:06:53;19.25;;;10.38;;
68484;SDS011;55472;50.060;21.960;2023-04-01T17:09:46;18.13;;;8.82;;
68484;SDS011;55472;50.060;21.960;2023-04-01T17:15:33;17.80;;;8.10;;
68484;SDS011;55472;50.060;21.960;2023-04-01T17:18:22;15.13;;;7.40;;
68484;SDS011;55472;50.060;21.960;2023-04-01T17:23:43;19.08;;;7.90;;
68484;SDS011;55472;50.060;21.960;2023-04-01T17:26:28;17.33;;;8.73;;
68484;SDS011;55472;50.060;21.960;2023-04-01T17:48:36;14.32;;;5.82;;
68484;SDS011;55472;50.060;21.960;2023-04-01T18:18:02;8.48;;;2.78;;
68484;SDS011;55472;50.060;21.960;2023-04-01T18:23:46;7.90;;;2.70;;
68484;SDS011;55472;50.060;21.960;2023-04-01T18:26:24;6.93;;;2.70;;
68484;SDS011;55472;50.060;21.960;2023-04-01T18:29:03;9.32;;;2.88;;
68484;SDS011;55472;50.060;21.960;2023-04-01T18:31:45;14.73;;;4.22;;
68484;SDS011;55472;50.060;21.960;2023-04-01T18:34:19;17.95;;;4.95;;
68484;SDS011;55472;50.060;21.960;2023-04-01T19:01:06;7.78;;;2.22;;
68484;SDS011;55472;50.060;21.960;2023-04-01T19:03:48;6.20;;;2.00;;
68484;SDS011;55472;50.060;21.960;2023-04-01T19:09:14;8.07;;;2.90;;
68484;SDS011;55472;50.060;21.960;2023-04-01T19:12:20;8.65;;;2.72;;
68484;SDS011;55472;50.060;21.960;2023-04-01T19:20:55;8.20;;;2.60;;
68484;SDS011;55472;50.060;21.960;2023-04-01T19:26:35;7.50;;;2.70;;
68484;SDS011;55472;50.060;21.960;2023-04-01T19:38:48;7.70;;;2.87;;
68484;SDS011;55472;50.060;21.960;2023-04-01T19:41:50;8.93;;;3.30;;
68484;SDS011;55472;50.060;21.960;2023-04-01T19:44:37;8.63;;;2.92;;
68484;SDS011;55472;50.060;21.960;2023-04-01T19:50:30;8.95;;;3.60;;
68484;SDS011;55472;50.060;21.960;2023-04-01T19:53:05;10.30;;;3.87;;
68484;SDS011;55472;50.060;21.960;2023-04-01T19:56:01;8.77;;;3.25;;
68484;SDS011;55472;50.060;21.960;2023-04-01T19:58:34;9.18;;;3.58;;
68484;SDS011;55472;50.060;21.960;2023-04-01T20:04:51;7.97;;;3.45;;
68484;SDS011;55472;50.060;21.960;2023-04-01T20:07:23;10.87;;;3.33;;
68484;SDS011;55472;50.060;21.960;2023-04-01T20:10:16;11.30;;;4.07;;
68484;SDS011;55472;50.060;21.960;2023-04-01T20:16:33;9.23;;;3.55;;
68484;SDS011;55472;50.060;21.960;2023-04-01T20:19:14;10.90;;;4.13;;
68484;SDS011;55472;50.060;21.960;2023-04-01T20:21:56;13.83;;;4.77;;
68484;SDS011;55472;50.060;21.960;2023-04-01T20:24:28;11.27;;;4.18;;
68484;SDS011;55472;50.060;21.960;2023-04-01T20:27:09;9.13;;;3.50;;
68484;SDS011;55472;50.060;21.960;2023-04-01T20:29:56;9.77;;;3.97;;
68484;SDS011;55472;50.060;21.960;2023-04-01T20:32:33;9.05;;;3.58;;
68484;SDS011;55472;50.060;21.960;2023-04-01T20:54:41;11.85;;;5.15;;
68484;SDS011;55472;50.060;21.960;2023-04-01T21:00:03;13.05;;;5.07;;
68484;SDS011;55472;50.060;21.960;2023-04-01T21:06:14;11.75;;;5.13;;
68484;SDS011;55472;50.060;21.960;2023-04-01T21:15:39;9.32;;;4.93;;
68484;SDS011;55472;50.060;21.960;2023-04-01T21:26:43;13.73;;;5.95;;
68484;SDS011;55472;50.060;21.960;2023-04-01T21:32:06;13.73;;;5.73;;
68484;SDS011;55472;50.060;21.960;2023-04-01T21:34:50;12.73;;;5.95;;
68484;SDS011;55472;50.060;21.960;2023-04-01T21:53:36;13.30;;;6.00;;
68484;SDS011;55472;50.060;21.960;2023-04-01T21:59:54;15.87;;;5.87;;
68484;SDS011;55472;50.060;21.960;2023-04-01T22:14:09;13.90;;;6.17;;
68484;SDS011;55472;50.060;21.960;2023-04-01T22:22:32;13.63;;;6.05;;
68484;SDS011;55472;50.060;21.960;2023-04-01T22:25:15;15.23;;;6.68;;
68484;SDS011;55472;50.060;21.960;2023-04-01T22:28:07;16.30;;;6.90;;
68484;SDS011;55472;50.060;21.960;2023-04-01T22:30:51;15.70;;;6.88;;
68484;SDS011;55472;50.060;21.960;2023-04-01T22:45:28;17.95;;;7.32;;
68484;SDS011;55472;50.060;21.960;2023-04-01T22:48:35;15.68;;;7.63;;
68484;SDS011;55472;50.060;21.960;2023-04-01T22:56:32;15.43;;;7.17;;
68484;SDS011;55472;50.060;21.960;2023-04-01T22:59:15;16.33;;;7.45;;
68484;SDS011;55472;50.060;21.960;2023-04-01T23:02:01;16.27;;;7.88;;
68484;SDS011;55472;50.060;21.960;2023-04-01T23:04:42;16.27;;;7.30;;
68484;SDS011;55472;50.060;21.960;2023-04-01T23:09:56;16.50;;;7.50;;
68484;SDS011;55472;50.060;21.960;2023-04-01T23:12:28;18.27;;;8.55;;
68484;SDS011;55472;50.060;21.960;2023-04-01T23:14:57;14.88;;;7.45;;
68484;SDS011;55472;50.060;21.960;2023-04-01T23:17:38;20.08;;;7.57;;
68484;SDS011;55472;50.060;21.960;2023-04-01T23:20:29;17.50;;;8.02;;
68484;SDS011;55472;50.060;21.960;2023-04-01T23:23:33;17.90;;;7.57;;
68484;SDS011;55472;50.060;21.960;2023-04-01T23:29:20;16.02;;;7.88;;
68484;SDS011;55472;50.060;21.960;2023-04-01T23:31:57;16.98;;;7.68;;
68484;SDS011;55472;50.060;21.960;2023-04-01T23:37:04;16.63;;;7.37;;
68484;SDS011;55472;50.060;21.960;2023-04-01T23:39:38;14.43;;;7.07;;
68484;SDS011;55472;50.060;21.960;2023-04-01T23:42:15;15.38;;;7.22;;
68484;SDS011;55472;50.060;21.960;2023-04-01T23:45:15;17.38;;;7.65;;
68484;SDS011;55472;50.060;21.960;2023-04-01T23:47:45;15.63;;;7.40;;
68484;SDS011;55472;50.060;21.960;2023-04-01T23:50:16;15.80;;;7.00;;
68484;SDS011;55472;50.060;21.960;2023-04-01T23:53:01;15.85;;;8.02;;
68484;SDS011;55472;50.060;21.960;2023-04-01T23:55:34;17.05;;;7.50;;
68484;SDS011;55472;50.060;21.960;2023-04-01T23:58:05;17.02;;;7.80;;
